Time;durP1;ratioP1;P1;durP2;ratioP2;P2;SDS_P1;SDS_P2;PMS_P1;PMS_P2;Temp;Humidity;BMP_temperature;BMP_pressure;BME280_temperature;BME280_humidity;BME280_pressure;Samples;Min_cycle;Max_cycle;Signal;HPM_P1;HPM_P2
2022/12/12 00:00:38;;;;;;;39.55;25.25;;;;;;;;;;4946818;28;20058;-83
2022/12/12 00:03:05;;;;;;;39.53;24.40;;;;;;;;;;4978819;28;20110;-82
2022/12/12 00:05:32;;;;;;;38.60;24.35;;;;;;;;;;4978699;28;20090;-83
2022/12/12 00:07:59;;;;;;;41.47;25.15;;;;;;;;;;4962417;28;20058;-81
2022/12/12 00:10:25;;;;;;;38.55;24.33;;;;;;;;;;4959502;28;20137;-81
2022/12/12 00:12:52;;;;;;;41.65;26.27;;;;;;;;;;4960378;28;20086;-81
2022/12/12 00:15:19;;;;;;;39.33;25.35;;;;;;;;;;4945203;28;20510;-81
2022/12/12 00:17:46;;;;;;;41.58;24.42;;;;;;;;;;4945826;28;20051;-80
2022/12/12 00:20:12;;;;;;;42.28;26.92;;;;;;;;;;4965129;28;20052;-80
2022/12/12 00:22:39;;;;;;;41.05;25.17;;;;;;;;;;4980457;28;20042;-79
2022/12/12 00:25:06;;;;;;;43.40;26.02;;;;;;;;;;4979350;28;20053;-78
2022/12/12 00:27:33;;;;;;;40.83;25.88;;;;;;;;;;4981073;28;20031;-79
2022/12/12 00:30:00;;;;;;;45.55;26.50;;;;;;;;;;4963470;28;20087;-80
2022/12/12 00:32:27;;;;;;;41.45;25.67;;;;;;;;;;4957383;28;20059;-80
2022/12/12 00:34:54;;;;;;;43.05;26.67;;;;;;;;;;4957253;28;20074;-80
2022/12/12 00:37:20;;;;;;;40.63;25.42;;;;;;;;;;4972212;28;20055;-80
2022/12/12 00:39:47;;;;;;;39.28;25.17;;;;;;;;;;4972758;28;20058;-80
2022/12/12 00:42:14;;;;;;;42.00;25.98;;;;;;;;;;4972116;28;20055;-79
2022/12/12 00:44:41;;;;;;;40.05;24.25;;;;;;;;;;4959727;28;20122;-79
2022/12/12 00:47:07;;;;;;;38.50;22.88;;;;;;;;;;4945187;28;20121;-80
2022/12/12 00:49:34;;;;;;;38.80;23.45;;;;;;;;;;4947127;28;20400;-82
2022/12/12 00:52:01;;;;;;;39.83;25.25;;;;;;;;;;4963434;28;20477;-82
2022/12/12 00:54:28;;;;;;;36.58;23.27;;;;;;;;;;4947816;28;20058;-81
2022/12/12 00:56:55;;;;;;;38.92;23.40;;;;;;;;;;4963062;28;20058;-82
2022/12/12 00:59:21;;;;;;;38.15;24.38;;;;;;;;;;4962658;28;20456;-80
2022/12/12 01:01:48;;;;;;;38.97;23.33;;;;;;;;;;4962527;28;20435;-81
2022/12/12 01:04:15;;;;;;;37.90;23.63;;;;;;;;;;4948119;28;20051;-81
2022/12/12 01:06:41;;;;;;;41.42;23.80;;;;;;;;;;4963641;28;20062;-81
2022/12/12 01:09:08;;;;;;;36.08;22.15;;;;;;;;;;4964461;28;20043;-81
2022/12/12 01:11:35;;;;;;;35.08;21.70;;;;;;;;;;4962964;28;20051;-82
2022/12/12 01:14:02;;;;;;;33.70;21.75;;;;;;;;;;4964545;28;20306;-82
2022/12/12 01:16:29;;;;;;;34.78;20.73;;;;;;;;;;4962985;28;20082;-81
2022/12/12 01:18:56;;;;;;;39.65;22.92;;;;;;;;;;4979060;28;20086;-80
2022/12/12 01:21:23;;;;;;;37.03;22.45;;;;;;;;;;4962836;28;20050;-81
2022/12/12 01:23:50;;;;;;;32.72;20.85;;;;;;;;;;4964995;28;20471;-81
2022/12/12 01:26:19;;;;;;;36.83;22.83;;;;;;;;;;4946616;28;20062;-80
2022/12/12 01:28:46;;;;;;;33.75;22.55;;;;;;;;;;4947149;28;20103;-81
2022/12/12 01:31:13;;;;;;;35.38;21.83;;;;;;;;;;4963420;28;20066;-81
2022/12/12 01:33:44;;;;;;;37.30;22.33;;;;;;;;;;4948540;28;20125;-82
2022/12/12 01:36:16;;;;;;;33.97;20.98;;;;;;;;;;4965936;28;20058;-83
2022/12/12 01:38:44;;;;;;;31.73;19.95;;;;;;;;;;4950222;28;20062;-82
2022/12/12 01:41:12;;;;;;;31.17;19.30;;;;;;;;;;4950086;28;20059;-83
2022/12/12 01:43:38;;;;;;;35.08;20.17;;;;;;;;;;4969094;28;20106;-84
2022/12/12 01:46:07;;;;;;;32.95;20.63;;;;;;;;;;4967164;28;20055;-85
2022/12/12 01:48:41;;;;;;;31.08;18.95;;;;;;;;;;4983590;28;20054;-84
2022/12/12 01:51:16;;;;;;;33.50;20.67;;;;;;;;;;4967495;28;20074;-83
2022/12/12 01:53:43;;;;;;;33.00;20.08;;;;;;;;;;4964410;28;20062;-83
2022/12/12 01:56:12;;;;;;;32.65;20.67;;;;;;;;;;4944299;29;20054;-84
2022/12/12 01:58:39;;;;;;;32.83;20.35;;;;;;;;;;4946709;29;20047;-83
2022/12/12 02:01:06;;;;;;;32.67;19.75;;;;;;;;;;4961715;28;20417;-83
2022/12/12 02:03:33;;;;;;;32.10;20.05;;;;;;;;;;4950288;28;20062;-84
2022/12/12 02:06:02;;;;;;;31.02;19.27;;;;;;;;;;4952649;28;20062;-82
2022/12/12 02:08:28;;;;;;;31.35;20.05;;;;;;;;;;4964248;28;20050;-80
2022/12/12 02:10:55;;;;;;;32.78;21.05;;;;;;;;;;4977003;28;20059;-80
2022/12/12 02:13:25;;;;;;;33.63;19.98;;;;;;;;;;4960648;28;20104;-80
2022/12/12 02:15:56;;;;;;;35.90;21.55;;;;;;;;;;4946772;28;20467;-80
2022/12/12 02:18:25;;;;;;;33.80;20.48;;;;;;;;;;4964880;28;20054;-80
2022/12/12 02:21:04;;;;;;;33.45;21.30;;;;;;;;;;4979472;28;20051;-80
2022/12/12 02:23:39;;;;;;;34.08;21.38;;;;;;;;;;4958486;28;20055;-80
2022/12/12 02:26:21;;;;;;;32.78;21.23;;;;;;;;;;4957767;29;20054;-80
2022/12/12 02:29:25;;;;;;;35.47;21.67;;;;;;;;;;4956761;29;20055;-80
2022/12/12 02:32:06;;;;;;;38.92;23.70;;;;;;;;;;4959135;28;20066;-78
2022/12/12 02:34:45;;;;;;;36.45;22.83;;;;;;;;;;4976646;28;20051;-80
2022/12/12 02:37:15;;;;;;;37.40;22.95;;;;;;;;;;4963706;28;20466;-80
2022/12/12 02:39:54;;;;;;;40.30;24.35;;;;;;;;;;4961249;28;20061;-80
2022/12/12 02:42:45;;;;;;;41.58;24.52;;;;;;;;;;4956494;28;20057;-79
2022/12/12 02:45:23;;;;;;;40.25;23.45;;;;;;;;;;4953398;28;20068;-80
2022/12/12 02:47:53;;;;;;;39.13;23.70;;;;;;;;;;4969145;28;20062;-81
2022/12/12 02:50:22;;;;;;;39.22;23.63;;;;;;;;;;4954395;28;20053;-80
2022/12/12 02:52:49;;;;;;;38.65;22.25;;;;;;;;;;4948531;28;20126;-80
2022/12/12 02:55:16;;;;;;;39.92;23.10;;;;;;;;;;4947862;28;20622;-80
2022/12/12 02:57:44;;;;;;;39.08;23.45;;;;;;;;;;4945865;28;20057;-80
2022/12/12 03:00:16;;;;;;;40.33;23.30;;;;;;;;;;4960456;28;20396;-80
2022/12/12 03:09:24;;;;;;;36.33;22.60;;;;;;;;;;4976550;28;20138;-79
2022/12/12 03:11:59;;;;;;;41.53;23.77;;;;;;;;;;4961168;28;20059;-80
2022/12/12 03:14:56;;;;;;;35.50;21.27;;;;;;;;;;4960862;28;20053;-81
2022/12/12 03:17:38;;;;;;;39.85;22.90;;;;;;;;;;4963196;28;20055;-81
2022/12/12 03:20:19;;;;;;;39.75;23.60;;;;;;;;;;4945095;28;20046;-81
2022/12/12 03:22:59;;;;;;;37.95;23.88;;;;;;;;;;4944405;28;20047;-81
2022/12/12 03:25:33;;;;;;;40.35;23.75;;;;;;;;;;4945242;28;20061;-81
2022/12/12 03:28:11;;;;;;;41.42;24.65;;;;;;;;;;4959734;28;20133;-81
2022/12/12 03:30:43;;;;;;;45.05;26.85;;;;;;;;;;4959900;28;20087;-81
2022/12/12 03:33:49;;;;;;;46.07;27.43;;;;;;;;;;4945195;28;20415;-84
2022/12/12 03:36:23;;;;;;;48.47;27.45;;;;;;;;;;4965610;28;20297;-84
2022/12/12 03:39:04;;;;;;;45.88;27.20;;;;;;;;;;4949371;28;20053;-85
2022/12/12 03:41:35;;;;;;;48.13;26.35;;;;;;;;;;4947001;28;20526;-83
2022/12/12 03:44:10;;;;;;;44.05;24.92;;;;;;;;;;4947565;28;20072;-83
2022/12/12 03:46:49;;;;;;;47.30;26.92;;;;;;;;;;4950727;28;20059;-84
2022/12/12 03:49:23;;;;;;;43.95;27.58;;;;;;;;;;4950475;28;20047;-83
2022/12/12 03:51:54;;;;;;;45.25;25.80;;;;;;;;;;4966822;28;20061;-83
2022/12/12 03:54:33;;;;;;;44.78;26.02;;;;;;;;;;4947141;29;20054;-82
2022/12/12 03:57:12;;;;;;;45.22;26.15;;;;;;;;;;4946631;29;20059;-82
2022/12/12 03:59:54;;;;;;;36.90;22.95;;;;;;;;;;4942201;29;20067;-82
2022/12/12 04:02:50;;;;;;;41.13;24.35;;;;;;;;;;4950076;28;20054;-82
2022/12/12 04:05:19;;;;;;;39.15;22.70;;;;;;;;;;4951651;28;20086;-82
2022/12/12 04:08:07;;;;;;;40.35;23.48;;;;;;;;;;4966331;28;20061;-81
2022/12/12 04:13:41;;;;;;;38.63;23.95;;;;;;;;;;4968594;28;20059;-82
2022/12/12 04:16:14;;;;;;;43.10;23.55;;;;;;;;;;4961458;28;20058;-82
2022/12/12 04:18:53;;;;;;;;;;;;;;;;;;4945129;28;20050;-81
2022/12/12 04:24:17;;;;;;;29.00;19.42;;;;;;;;;;4978624;28;20050;-80
2022/12/12 04:26:53;;;;;;;30.55;19.08;;;;;;;;;;4976574;28;20053;-80
2022/12/12 04:29:40;;;;;;;35.22;20.45;;;;;;;;;;4946143;28;20055;-81
2022/12/12 04:32:12;;;;;;;30.27;19.58;;;;;;;;;;4960921;28;20058;-81
2022/12/12 04:34:39;;;;;;;30.50;19.33;;;;;;;;;;4945898;28;20050;-81
2022/12/12 04:37:06;;;;;;;29.95;18.75;;;;;;;;;;4978413;28;20286;-81
2022/12/12 04:39:33;;;;;;;31.92;20.30;;;;;;;;;;4948075;28;20051;-82
2022/12/12 04:42:00;;;;;;;34.88;20.35;;;;;;;;;;4965835;28;20053;-82
2022/12/12 04:44:27;;;;;;;35.50;22.00;;;;;;;;;;4966693;28;20135;-82
2022/12/12 04:46:54;;;;;;;32.03;21.08;;;;;;;;;;4966467;28;20051;-83
2022/12/12 04:49:25;;;;;;;35.38;22.00;;;;;;;;;;4966442;28;20507;-83
2022/12/12 04:51:54;;;;;;;36.40;21.75;;;;;;;;;;4948001;28;20085;-83
2022/12/12 04:54:38;;;;;;;33.60;21.02;;;;;;;;;;4932363;29;20067;-83
2022/12/12 04:57:07;;;;;;;34.20;21.10;;;;;;;;;;4946255;29;20063;-82
2022/12/12 04:59:34;;;;;;;38.22;22.13;;;;;;;;;;4955105;29;20496;-78
2022/12/12 05:02:16;;;;;;;36.65;22.30;;;;;;;;;;4941824;28;20062;-77
2022/12/12 05:05:01;;;;;;;37.63;22.85;;;;;;;;;;4958893;28;20073;-79
2022/12/12 05:07:38;;;;;;;37.10;23.98;;;;;;;;;;4985452;28;20122;-75
2022/12/12 05:10:11;;;;;;;42.15;25.80;;;;;;;;;;4969619;28;20062;-74
2022/12/12 05:12:49;;;;;;;51.63;32.13;;;;;;;;;;4976206;28;20043;-78
2022/12/12 05:15:17;;;;;;;43.03;26.05;;;;;;;;;;4979209;28;20031;-78
2022/12/12 05:17:55;;;;;;;43.35;27.13;;;;;;;;;;4976256;28;20055;-79
2022/12/12 05:20:22;;;;;;;37.05;23.80;;;;;;;;;;4925538;29;20051;-79
2022/12/12 05:22:49;;;;;;;41.30;25.25;;;;;;;;;;4944846;29;20248;-80
2022/12/12 05:25:15;;;;;;;38.80;23.90;;;;;;;;;;4924543;29;20098;-82
2022/12/12 05:27:42;;;;;;;41.33;24.85;;;;;;;;;;4938355;28;20070;-81
2022/12/12 05:30:09;;;;;;;42.13;24.20;;;;;;;;;;4956408;28;20055;-81
2022/12/12 05:32:36;;;;;;;36.85;23.83;;;;;;;;;;4945309;28;20050;-80
2022/12/12 05:35:04;;;;;;;39.65;25.50;;;;;;;;;;4975583;28;20046;-79
2022/12/12 05:37:31;;;;;;;75.13;51.13;;;;;;;;;;4962378;28;20055;-78
2022/12/12 05:39:58;;;;;;;54.03;34.38;;;;;;;;;;4961079;28;20057;-78
2022/12/12 05:42:25;;;;;;;42.92;26.33;;;;;;;;;;4977058;28;20062;-77
2022/12/12 05:44:52;;;;;;;38.97;24.00;;;;;;;;;;4974068;28;20058;-78
2022/12/12 05:47:19;;;;;;;37.15;24.15;;;;;;;;;;4960602;28;20062;-78
2022/12/12 05:49:45;;;;;;;36.72;22.80;;;;;;;;;;4943024;28;20051;-78
2022/12/12 05:52:12;;;;;;;37.58;23.95;;;;;;;;;;4966006;28;20062;-78
2022/12/12 05:54:39;;;;;;;37.10;23.60;;;;;;;;;;4979117;28;20057;-79
2022/12/12 05:57:08;;;;;;;39.67;23.90;;;;;;;;;;4970729;28;20094;-78
2022/12/12 05:59:35;;;;;;;37.42;23.67;;;;;;;;;;4939917;28;20043;-78
2022/12/12 06:02:02;;;;;;;34.70;23.30;;;;;;;;;;4950905;28;20050;-78
2022/12/12 06:04:29;;;;;;;41.10;24.10;;;;;;;;;;4946275;28;20046;-78
2022/12/12 06:06:56;;;;;;;37.53;24.50;;;;;;;;;;4943301;28;20062;-78
2022/12/12 06:09:22;;;;;;;38.25;24.25;;;;;;;;;;4975475;28;20443;-79
2022/12/12 06:11:49;;;;;;;37.88;24.17;;;;;;;;;;4961294;28;20054;-78
2022/12/12 06:14:16;;;;;;;58.40;31.15;;;;;;;;;;4976321;28;20051;-77
2022/12/12 06:16:43;;;;;;;49.35;29.73;;;;;;;;;;4977128;28;20062;-79
2022/12/12 06:19:11;;;;;;;39.78;24.63;;;;;;;;;;4960421;28;20550;-78
2022/12/12 06:21:38;;;;;;;39.03;25.08;;;;;;;;;;4960295;28;20047;-79
2022/12/12 06:24:05;;;;;;;38.70;22.13;;;;;;;;;;4961095;28;20089;-80
2022/12/12 06:26:32;;;;;;;37.92;23.48;;;;;;;;;;4972683;28;20054;-79
2022/12/12 06:28:59;;;;;;;39.40;22.25;;;;;;;;;;4968804;28;20060;-79
2022/12/12 06:31:26;;;;;;;39.17;24.52;;;;;;;;;;4968396;28;20051;-80
2022/12/12 06:33:53;;;;;;;37.03;23.92;;;;;;;;;;4942285;29;20097;-80
2022/12/12 06:36:24;;;;;;;35.25;21.95;;;;;;;;;;4972777;28;20051;-79
2022/12/12 06:38:56;;;;;;;34.53;23.08;;;;;;;;;;4941947;29;20059;-79
2022/12/12 06:41:24;;;;;;;36.20;23.23;;;;;;;;;;4958436;28;20050;-79
2022/12/12 06:43:51;;;;;;;34.17;22.40;;;;;;;;;;4957005;28;20043;-81
2022/12/12 06:46:22;;;;;;;31.63;21.92;;;;;;;;;;4963770;28;20057;-80
2022/12/12 06:48:49;;;;;;;35.13;21.85;;;;;;;;;;4965000;28;20051;-80
2022/12/12 06:51:19;;;;;;;35.58;22.85;;;;;;;;;;4961104;28;20055;-80
2022/12/12 06:53:46;;;;;;;38.45;23.60;;;;;;;;;;4961558;28;20521;-80
2022/12/12 06:56:17;;;;;;;37.72;23.30;;;;;;;;;;4978482;28;20511;-81
2022/12/12 06:58:44;;;;;;;44.40;23.35;;;;;;;;;;4959135;29;20055;-80
2022/12/12 07:01:12;;;;;;;33.65;22.05;;;;;;;;;;4956467;28;20511;-80
2022/12/12 07:03:40;;;;;;;35.05;22.70;;;;;;;;;;4943074;28;20468;-80
2022/12/12 07:06:07;;;;;;;35.13;22.63;;;;;;;;;;4959074;28;20445;-78
2022/12/12 07:08:34;;;;;;;34.63;22.25;;;;;;;;;;4952507;29;20070;-77
2022/12/12 07:11:14;;;;;;;35.30;22.02;;;;;;;;;;4920873;28;20039;-77
2022/12/12 07:13:41;;;;;;;37.58;23.48;;;;;;;;;;4970468;28;20427;-75
2022/12/12 07:16:08;;;;;;;36.05;23.08;;;;;;;;;;4971714;28;20058;-76
2022/12/12 07:18:35;;;;;;;37.80;22.23;;;;;;;;;;4939335;28;20094;-76
2022/12/12 07:21:04;;;;;;;35.50;22.60;;;;;;;;;;4954357;28;20066;-76
2022/12/12 07:23:31;;;;;;;40.72;24.70;;;;;;;;;;4955271;28;20058;-77
2022/12/12 07:25:58;;;;;;;44.10;25.15;;;;;;;;;;4938830;28;20087;-77
2022/12/12 07:28:25;;;;;;;37.80;22.52;;;;;;;;;;4970862;28;20530;-76
2022/12/12 07:30:52;;;;;;;36.50;23.60;;;;;;;;;;4970872;28;20580;-77
2022/12/12 07:33:20;;;;;;;34.67;22.10;;;;;;;;;;4971655;28;20060;-75
2022/12/12 07:35:47;;;;;;;43.22;25.30;;;;;;;;;;4956130;28;20062;-75
2022/12/12 07:38:14;;;;;;;35.35;23.40;;;;;;;;;;4971831;28;20057;-77
2022/12/12 07:40:41;;;;;;;37.05;23.75;;;;;;;;;;4956445;28;20082;-77
2022/12/12 07:43:07;;;;;;;37.60;23.23;;;;;;;;;;4956336;28;20057;-76
2022/12/12 07:45:34;;;;;;;37.58;24.55;;;;;;;;;;4955851;28;20059;-77
2022/12/12 07:48:01;;;;;;;39.58;23.52;;;;;;;;;;4998639;23;20051;-84
2022/12/12 07:50:28;;;;;;;41.70;25.38;;;;;;;;;;4958582;29;20054;-85
2022/12/12 07:52:55;;;;;;;37.70;24.02;;;;;;;;;;4939632;29;20070;-84
2022/12/12 07:55:22;;;;;;;41.58;24.67;;;;;;;;;;4921661;29;20193;-84
2022/12/12 07:57:48;;;;;;;35.90;23.60;;;;;;;;;;4939386;29;20090;-84
2022/12/12 08:00:16;;;;;;;40.47;24.83;;;;;;;;;;4923682;29;20051;-89
2022/12/12 08:02:43;;;;;;;36.63;22.80;;;;;;;;;;4926444;29;20448;-86
2022/12/12 08:05:14;;;;;;;35.13;21.73;;;;;;;;;;4939879;29;20385;-84
2022/12/12 08:07:42;;;;;;;39.25;23.88;;;;;;;;;;4932421;29;20424;-79
2022/12/12 08:10:09;;;;;;;38.97;23.58;;;;;;;;;;4945975;29;20047;-80
2022/12/12 08:12:36;;;;;;;35.50;23.45;;;;;;;;;;4956426;28;20074;-81
2022/12/12 08:15:03;;;;;;;41.95;23.65;;;;;;;;;;4949029;29;20056;-77
2022/12/12 08:17:30;;;;;;;38.72;23.45;;;;;;;;;;4938058;29;20071;-78
2022/12/12 08:19:56;;;;;;;38.08;23.50;;;;;;;;;;4953298;28;20056;-77
2022/12/12 08:22:23;;;;;;;37.20;23.30;;;;;;;;;;4951279;29;20055;-79
2022/12/12 08:24:50;;;;;;;37.35;24.25;;;;;;;;;;4944729;28;20061;-77
2022/12/12 08:27:17;;;;;;;36.60;22.67;;;;;;;;;;4918458;29;20492;-78
2022/12/12 08:29:44;;;;;;;36.35;22.77;;;;;;;;;;4911408;29;20047;-85
2022/12/12 08:32:11;;;;;;;34.75;23.08;;;;;;;;;;4931284;29;20107;-81
2022/12/12 08:34:38;;;;;;;37.42;24.63;;;;;;;;;;4918045;29;20070;-86
2022/12/12 08:37:05;;;;;;;36.28;23.15;;;;;;;;;;4933675;29;20083;-85
2022/12/12 08:39:32;;;;;;;38.95;23.48;;;;;;;;;;4906497;29;20054;-85
2022/12/12 08:42:00;;;;;;;35.13;21.88;;;;;;;;;;4914511;29;20055;-84
2022/12/12 08:44:27;;;;;;;35.88;22.83;;;;;;;;;;4934012;29;20052;-85
2022/12/12 08:46:54;;;;;;;38.40;22.33;;;;;;;;;;4934165;29;20531;-85
2022/12/12 08:49:21;;;;;;;36.47;22.35;;;;;;;;;;4916924;29;20047;-85
2022/12/12 08:51:49;;;;;;;35.80;22.17;;;;;;;;;;4925310;29;20059;-84
2022/12/12 08:54:16;;;;;;;33.17;20.80;;;;;;;;;;4913429;29;20056;-83
2022/12/12 08:56:43;;;;;;;34.33;20.55;;;;;;;;;;4935212;29;20083;-85
2022/12/12 08:59:10;;;;;;;34.50;21.05;;;;;;;;;;4931640;29;20047;-86
2022/12/12 09:01:37;;;;;;;33.20;21.27;;;;;;;;;;4933917;29;20122;-84
2022/12/12 09:04:04;;;;;;;37.13;22.02;;;;;;;;;;4934635;29;20119;-85
2022/12/12 09:06:31;;;;;;;35.97;21.08;;;;;;;;;;4908977;29;20047;-85
2022/12/12 09:08:58;;;;;;;34.90;20.65;;;;;;;;;;4923750;29;20059;-85
2022/12/12 09:11:25;;;;;;;31.98;19.67;;;;;;;;;;4915134;29;20048;-86
2022/12/12 09:13:52;;;;;;;33.70;21.40;;;;;;;;;;4935579;29;20064;-86
2022/12/12 09:16:20;;;;;;;32.95;20.15;;;;;;;;;;4929885;29;20129;-86
2022/12/12 09:18:47;;;;;;;35.30;20.95;;;;;;;;;;4929661;29;20100;-83
2022/12/12 09:21:16;;;;;;;32.78;20.80;;;;;;;;;;4923261;29;20127;-84
2022/12/12 09:23:42;;;;;;;33.38;19.75;;;;;;;;;;4922982;29;20477;-85
2022/12/12 09:26:10;;;;;;;33.00;20.08;;;;;;;;;;4941457;29;20051;-82
2022/12/12 09:28:37;;;;;;;36.97;23.02;;;;;;;;;;4936890;29;20249;-83
2022/12/12 09:31:05;;;;;;;37.72;21.85;;;;;;;;;;4937998;29;20058;-84
2022/12/12 09:33:33;;;;;;;51.95;31.55;;;;;;;;;;4938628;29;20082;-84
2022/12/12 09:36:02;;;;;;;31.70;21.52;;;;;;;;;;4934424;29;20111;-82
2022/12/12 09:38:29;;;;;;;31.15;19.77;;;;;;;;;;4930910;29;20086;-85
2022/12/12 09:41:10;;;;;;;29.17;18.90;;;;;;;;;;4908161;29;20055;-85
2022/12/12 09:43:45;;;;;;;33.90;20.70;;;;;;;;;;4938810;29;20048;-86
2022/12/12 09:46:36;;;;;;;34.10;19.92;;;;;;;;;;4947212;28;20062;-84
2022/12/12 09:49:18;;;;;;;30.42;19.23;;;;;;;;;;4950515;28;20066;-84
2022/12/12 09:51:47;;;;;;;35.22;18.92;;;;;;;;;;4952732;28;20047;-84
2022/12/12 09:54:15;;;;;;;30.73;19.45;;;;;;;;;;4960253;29;20055;-85
2022/12/12 09:57:05;;;;;;;26.40;18.35;;;;;;;;;;4974875;28;20058;-85
2022/12/12 09:59:47;;;;;;;32.35;20.92;;;;;;;;;;4963902;28;20058;-85
2022/12/12 10:02:29;;;;;;;34.83;19.90;;;;;;;;;;4966236;28;20058;-85
2022/12/12 10:05:08;;;;;;;31.75;21.02;;;;;;;;;;4972338;28;20058;-85
2022/12/12 10:08:02;;;;;;;31.27;20.33;;;;;;;;;;4939814;29;20070;-85
2022/12/12 10:10:39;;;;;;;30.85;19.90;;;;;;;;;;4955137;29;20043;-85
2022/12/12 10:13:13;;;;;;;33.03;19.90;;;;;;;;;;4967091;28;20048;-77
2022/12/12 10:15:42;;;;;;;35.97;19.50;;;;;;;;;;4958261;28;20075;-86
2022/12/12 10:18:31;;;;;;;31.65;20.60;;;;;;;;;;4970850;29;20044;-86
2022/12/12 10:21:00;;;;;;;31.30;19.63;;;;;;;;;;4973566;28;20062;-87
2022/12/12 10:23:45;;;;;;;32.47;20.35;;;;;;;;;;4968382;29;20059;-87
2022/12/12 10:26:16;;;;;;;30.98;19.50;;;;;;;;;;4967417;29;20123;-87
2022/12/12 10:28:43;;;;;;;27.33;17.83;;;;;;;;;;4949185;28;20045;-86
2022/12/12 10:31:22;;;;;;;30.52;19.65;;;;;;;;;;4951628;29;20046;-88
2022/12/12 10:34:14;;;;;;;33.03;20.05;;;;;;;;;;4977682;28;20072;-86
2022/12/12 10:37:02;;;;;;;31.38;19.08;;;;;;;;;;4962135;29;20099;-87
2022/12/12 10:39:57;;;;;;;30.95;17.55;;;;;;;;;;4979732;28;20493;-87
2022/12/12 10:42:33;;;;;;;25.88;17.40;;;;;;;;;;4989097;28;20043;-87
2022/12/12 10:45:12;;;;;;;28.10;16.58;;;;;;;;;;4977084;28;20059;-87
2022/12/12 10:47:39;;;;;;;28.40;18.60;;;;;;;;;;4957564;28;20052;-76
2022/12/12 10:50:34;;;;;;;30.05;18.92;;;;;;;;;;4949462;29;20139;-79
2022/12/12 10:53:06;;;;;;;27.40;16.70;;;;;;;;;;4952541;29;20059;-79
2022/12/12 10:55:55;;;;;;;28.02;16.85;;;;;;;;;;4964215;29;20091;-82
2022/12/12 10:58:26;;;;;;;29.77;17.95;;;;;;;;;;4978184;28;20110;-88
2022/12/12 11:01:01;;;;;;;26.35;17.27;;;;;;;;;;4976820;28;20047;-79
2022/12/12 11:03:34;;;;;;;31.65;16.90;;;;;;;;;;4967619;28;20055;-85
2022/12/12 11:06:13;;;;;;;26.60;16.77;;;;;;;;;;4966046;28;20070;-83
2022/12/12 11:08:52;;;;;;;29.63;18.15;;;;;;;;;;4929404;29;20094;-87
2022/12/12 11:11:21;;;;;;;29.40;17.90;;;;;;;;;;4935811;29;20051;-89
2022/12/12 11:13:55;;;;;;;27.13;17.42;;;;;;;;;;4940133;29;20052;-88
2022/12/12 11:16:28;;;;;;;28.90;17.80;;;;;;;;;;4947287;28;20289;-87
2022/12/12 11:19:15;;;;;;;27.95;17.05;;;;;;;;;;4989510;28;20048;-88
2022/12/12 11:21:42;;;;;;;27.33;17.95;;;;;;;;;;4966315;28;20089;-89
2022/12/12 11:24:12;;;;;;;25.90;16.88;;;;;;;;;;4977064;28;20062;-86
2022/12/12 11:26:44;;;;;;;27.67;17.10;;;;;;;;;;4951383;29;20055;-86
2022/12/12 11:29:43;;;;;;;26.35;16.60;;;;;;;;;;4940165;29;20057;-87
2022/12/12 11:32:18;;;;;;;25.77;16.33;;;;;;;;;;4949299;28;20136;-85
2022/12/12 11:34:50;;;;;;;24.52;16.10;;;;;;;;;;4968740;28;20135;-86
2022/12/12 11:37:19;;;;;;;27.05;17.52;;;;;;;;;;4956744;29;20107;-87
2022/12/12 11:39:49;;;;;;;28.35;16.65;;;;;;;;;;4954154;29;20047;-88
2022/12/12 11:42:25;;;;;;;29.67;16.65;;;;;;;;;;4939736;29;20043;-87
2022/12/12 11:45:01;;;;;;;26.88;17.65;;;;;;;;;;4971157;28;20056;-87
2022/12/12 11:47:29;;;;;;;25.98;17.00;;;;;;;;;;4951903;28;20069;-88
2022/12/12 11:49:57;;;;;;;26.33;16.35;;;;;;;;;;4954524;28;20065;-87
2022/12/12 11:52:31;;;;;;;24.45;16.88;;;;;;;;;;4951613;28;20051;-87
2022/12/12 11:54:58;;;;;;;27.10;17.40;;;;;;;;;;4953027;28;20062;-87
2022/12/12 11:57:31;;;;;;;29.27;17.35;;;;;;;;;;4937769;29;20086;-87
2022/12/12 12:00:08;;;;;;;26.88;17.75;;;;;;;;;;4969697;28;20051;-87
2022/12/12 12:02:50;;;;;;;24.27;15.80;;;;;;;;;;4968603;28;20053;-87
2022/12/12 12:05:27;;;;;;;29.42;17.70;;;;;;;;;;4945279;28;20050;-87
2022/12/12 12:08:28;;;;;;;32.08;18.15;;;;;;;;;;4969353;28;20057;-87
2022/12/12 12:11:39;;;;;;;27.25;16.83;;;;;;;;;;4947752;28;20047;-87
2022/12/12 12:14:11;;;;;;;23.35;15.07;;;;;;;;;;4928105;29;20051;-87
2022/12/12 12:16:50;;;;;;;29.40;17.35;;;;;;;;;;4930827;29;20048;-87
2022/12/12 12:19:22;;;;;;;26.17;15.70;;;;;;;;;;4955151;29;20162;-87
2022/12/12 12:21:56;;;;;;;28.27;16.40;;;;;;;;;;4944943;29;20044;-87
2022/12/12 12:24:26;;;;;;;;;;;;;;;;;;4963569;28;20048;-87
2022/12/12 12:27:09;;;;;;;23.02;15.18;;;;;;;;;;4944912;29;19926;-87
2022/12/12 12:30:06;;;;;;;26.27;15.25;;;;;;;;;;4947984;29;20424;-88
2022/12/12 12:32:46;;;;;;;23.92;14.85;;;;;;;;;;4942158;29;20411;-88
2022/12/12 12:35:36;;;;;;;26.02;16.60;;;;;;;;;;4966730;28;20059;-87
2022/12/12 12:38:37;;;;;;;22.80;14.77;;;;;;;;;;4936624;28;20063;-88
2022/12/12 12:41:11;;;;;;;32.53;15.32;;;;;;;;;;4962103;28;20543;-88
2022/12/12 12:43:56;;;;;;;24.95;16.52;;;;;;;;;;4935970;29;20055;-87
2022/12/12 12:46:36;;;;;;;24.33;14.75;;;;;;;;;;4970785;28;20051;-87
2022/12/12 12:49:26;;;;;;;23.67;15.25;;;;;;;;;;4955409;28;20504;-87
2022/12/12 12:51:57;;;;;;;24.45;15.50;;;;;;;;;;4957584;29;20061;-87
2022/12/12 12:54:27;;;;;;;28.45;16.45;;;;;;;;;;4936656;29;20051;-87
2022/12/12 12:57:09;;;;;;;25.13;15.55;;;;;;;;;;4952712;29;20056;-87
2022/12/12 12:59:41;;;;;;;26.60;16.05;;;;;;;;;;4921125;29;20078;-87
2022/12/12 13:02:45;;;;;;;23.20;15.80;;;;;;;;;;4937511;29;20416;-87
2022/12/12 13:05:33;;;;;;;24.38;14.07;;;;;;;;;;4957046;29;20059;-87
2022/12/12 13:08:12;;;;;;;22.52;13.98;;;;;;;;;;4927765;29;20052;-86
2022/12/12 13:10:41;;;;;;;24.73;15.90;;;;;;;;;;4942218;29;20064;-87
2022/12/12 13:13:17;;;;;;;24.70;14.55;;;;;;;;;;4925556;29;20423;-87
2022/12/12 13:15:46;;;;;;;23.55;15.90;;;;;;;;;;4927031;29;20115;-87
2022/12/12 13:18:14;;;;;;;23.80;15.50;;;;;;;;;;4933814;29;20082;-88
2022/12/12 13:20:52;;;;;;;24.45;15.90;;;;;;;;;;4936888;29;20083;-87
2022/12/12 13:23:51;;;;;;;26.23;15.77;;;;;;;;;;4959386;29;20062;-87
2022/12/12 13:26:39;;;;;;;25.52;15.98;;;;;;;;;;4960453;29;20059;-87
2022/12/12 13:29:18;;;;;;;26.67;15.60;;;;;;;;;;4962414;29;20059;-88
2022/12/12 13:32:18;;;;;;;24.35;15.73;;;;;;;;;;4962943;29;20048;-87
2022/12/12 13:34:47;;;;;;;23.40;15.05;;;;;;;;;;4961771;29;20070;-86
2022/12/12 13:37:16;;;;;;;23.00;14.55;;;;;;;;;;4976404;28;20547;-88
2022/12/12 13:39:43;;;;;;;22.40;14.73;;;;;;;;;;4960561;29;20050;-87
2022/12/12 13:42:11;;;;;;;23.05;15.18;;;;;;;;;;4976236;28;20082;-87
2022/12/12 13:44:48;;;;;;;22.67;14.75;;;;;;;;;;4960773;29;20051;-87
2022/12/12 13:47:20;;;;;;;26.08;15.85;;;;;;;;;;4962029;28;20138;-87
2022/12/12 13:49:56;;;;;;;28.02;16.80;;;;;;;;;;4960083;28;20055;-87
2022/12/12 13:52:28;;;;;;;23.30;14.82;;;;;;;;;;4940838;29;20134;-88
2022/12/12 13:55:20;;;;;;;23.90;14.55;;;;;;;;;;4941173;29;20489;-87
2022/12/12 13:58:01;;;;;;;22.55;14.27;;;;;;;;;;4940912;29;20621;-87
2022/12/12 14:00:32;;;;;;;23.73;15.15;;;;;;;;;;4960118;28;20067;-87
2022/12/12 14:03:27;;;;;;;25.05;14.88;;;;;;;;;;4927296;29;20062;-87
2022/12/12 14:05:54;;;;;;;21.95;14.38;;;;;;;;;;4951350;28;20146;-87
2022/12/12 14:08:30;;;;;;;23.02;14.25;;;;;;;;;;4944621;29;20145;-87
2022/12/12 14:11:02;;;;;;;21.95;13.60;;;;;;;;;;4944968;28;20059;-87
2022/12/12 14:13:49;;;;;;;23.65;12.88;;;;;;;;;;4944389;28;20061;-88
2022/12/12 14:16:19;;;;;;;25.42;12.88;;;;;;;;;;4929497;29;20134;-87
2022/12/12 14:18:49;;;;;;;22.58;13.68;;;;;;;;;;4975712;28;20079;-87
2022/12/12 14:21:21;;;;;;;20.30;13.50;;;;;;;;;;4960227;29;20165;-87
2022/12/12 14:23:50;;;;;;;20.90;13.70;;;;;;;;;;4959195;29;20054;-87
2022/12/12 14:26:45;;;;;;;23.83;13.30;;;;;;;;;;4959049;29;20059;-87
2022/12/12 14:29:15;;;;;;;18.48;12.32;;;;;;;;;;4959375;28;20051;-87
2022/12/12 14:31:55;;;;;;;18.50;11.88;;;;;;;;;;4958211;28;20094;-78
2022/12/12 14:34:45;;;;;;;21.00;12.63;;;;;;;;;;4962574;28;20055;-80
2022/12/12 14:37:24;;;;;;;21.38;13.02;;;;;;;;;;4947119;28;20062;-82
2022/12/12 14:40:00;;;;;;;21.58;13.90;;;;;;;;;;4957266;28;20058;-84
2022/12/12 14:42:39;;;;;;;24.85;14.10;;;;;;;;;;4949828;28;20060;-83
2022/12/12 14:45:33;;;;;;;21.60;14.52;;;;;;;;;;4948542;28;20047;-85
2022/12/12 14:48:25;;;;;;;23.80;15.70;;;;;;;;;;4966173;28;20058;-87
2022/12/12 14:51:14;;;;;;;21.02;14.20;;;;;;;;;;4952578;29;20055;-88
2022/12/12 14:53:54;;;;;;;26.90;15.85;;;;;;;;;;4969238;28;20059;-88
2022/12/12 14:56:38;;;;;;;28.63;15.93;;;;;;;;;;4928121;29;20055;-86
2022/12/12 14:59:07;;;;;;;25.88;14.98;;;;;;;;;;4959125;28;20130;-87
2022/12/12 15:01:36;;;;;;;21.20;13.75;;;;;;;;;;4929957;28;20050;-87
2022/12/12 15:04:04;;;;;;;18.83;12.65;;;;;;;;;;4953141;29;20051;-86